sensor_id;sensor_type;location;lat;lon;timestamp;P1;durP1;ratioP1;P2;durP2;ratioP2
85259;SDS011;75671;41.678;44.824;2024-03-23T00:52:30;0.40;;;0.10;;
85259;SDS011;75671;41.678;44.824;2024-03-23T00:54:58;0.40;;;0.13;;
85259;SDS011;75671;41.678;44.824;2024-03-23T00:57:25;0.63;;;0.20;;
85259;SDS011;75671;41.678;44.824;2024-03-23T00:59:52;2.47;;;0.17;;
85259;SDS011;75671;41.678;44.824;2024-03-23T01:02:19;1.90;;;0.20;;
85259;SDS011;75671;41.678;44.824;2024-03-23T01:04:48;0.40;;;0.10;;
85259;SDS011;75671;41.678;44.824;2024-03-23T01:07:15;0.28;;;0.10;;
85259;SDS011;75671;41.678;44.824;2024-03-23T01:09:42;2.25;;;0.20;;
85259;SDS011;75671;41.678;44.824;2024-03-23T01:12:09;0.63;;;0.20;;
85259;SDS011;75671;41.678;44.824;2024-03-23T01:14:37;0.22;;;0.10;;
85259;SDS011;75671;41.678;44.824;2024-03-23T01:17:04;0.30;;;0.10;;
85259;SDS011;75671;41.678;44.824;2024-03-23T01:19:31;1.10;;;0.20;;
85259;SDS011;75671;41.678;44.824;2024-03-23T01:21:58;1.10;;;0.20;;
85259;SDS011;75671;41.678;44.824;2024-03-23T01:24:25;0.32;;;0.10;;
85259;SDS011;75671;41.678;44.824;2024-03-23T01:26:52;0.50;;;0.25;;
85259;SDS011;75671;41.678;44.824;2024-03-23T01:29:20;0.90;;;0.25;;
85259;SDS011;75671;41.678;44.824;2024-03-23T01:31:47;1.70;;;0.10;;
85259;SDS011;75671;41.678;44.824;2024-03-23T01:34:15;0.38;;;0.10;;
85259;SDS011;75671;41.678;44.824;2024-03-23T01:36:42;0.98;;;0.50;;
85259;SDS011;75671;41.678;44.824;2024-03-23T01:39:09;0.82;;;0.50;;
85259;SDS011;75671;41.678;44.824;2024-03-23T01:41:37;0.22;;;0.10;;
85259;SDS011;75671;41.678;44.824;2024-03-23T01:44:07;1.30;;;0.30;;
85259;SDS011;75671;41.678;44.824;2024-03-23T01:46:35;0.30;;;0.10;;
85259;SDS011;75671;41.678;44.824;2024-03-23T01:49:03;1.52;;;0.20;;
85259;SDS011;75671;41.678;44.824;2024-03-23T01:51:31;0.20;;;0.10;;
85259;SDS011;75671;41.678;44.824;2024-03-23T01:53:59;7.47;;;0.35;;
85259;SDS011;75671;41.678;44.824;2024-03-23T01:56:31;0.40;;;0.10;;
85259;SDS011;75671;41.678;44.824;2024-03-23T01:59:03;0.47;;;0.20;;
85259;SDS011;75671;41.678;44.824;2024-03-23T02:01:36;0.43;;;0.20;;
85259;SDS011;75671;41.678;44.824;2024-03-23T02:04:04;0.35;;;0.10;;
85259;SDS011;75671;41.678;44.824;2024-03-23T02:06:32;1.67;;;0.20;;
85259;SDS011;75671;41.678;44.824;2024-03-23T02:09:00;3.05;;;0.28;;
85259;SDS011;75671;41.678;44.824;2024-03-23T02:11:27;0.55;;;0.20;;
85259;SDS011;75671;41.678;44.824;2024-03-23T02:13:55;0.55;;;0.20;;
85259;SDS011;75671;41.678;44.824;2024-03-23T02:16:22;0.60;;;0.10;;
85259;SDS011;75671;41.678;44.824;2024-03-23T02:18:49;0.65;;;0.20;;
85259;SDS011;75671;41.678;44.824;2024-03-23T02:21:16;1.48;;;0.20;;
85259;SDS011;75671;41.678;44.824;2024-03-23T02:23:44;0.70;;;0.20;;
85259;SDS011;75671;41.678;44.824;2024-03-23T02:26:10;0.60;;;0.20;;
85259;SDS011;75671;41.678;44.824;2024-03-23T02:28:38;0.50;;;0.20;;
85259;SDS011;75671;41.678;44.824;2024-03-23T02:31:05;0.40;;;0.20;;
85259;SDS011;75671;41.678;44.824;2024-03-23T02:33:32;0.63;;;0.22;;
85259;SDS011;75671;41.678;44.824;2024-03-23T02:36:01;0.85;;;0.25;;
85259;SDS011;75671;41.678;44.824;2024-03-23T02:38:28;1.45;;;0.20;;
85259;SDS011;75671;41.678;44.824;2024-03-23T02:41:00;0.35;;;0.20;;
85259;SDS011;75671;41.678;44.824;2024-03-23T02:43:29;0.70;;;0.30;;
85259;SDS011;75671;41.678;44.824;2024-03-23T02:45:56;0.50;;;0.15;;
85259;SDS011;75671;41.678;44.824;2024-03-23T02:48:24;0.50;;;0.10;;
85259;SDS011;75671;41.678;44.824;2024-03-23T02:50:51;0.70;;;0.20;;
85259;SDS011;75671;41.678;44.824;2024-03-23T02:53:18;1.30;;;0.13;;
85259;SDS011;75671;41.678;44.824;2024-03-23T02:55:45;0.32;;;0.10;;
85259;SDS011;75671;41.678;44.824;2024-03-23T02:58:13;1.10;;;0.13;;
85259;SDS011;75671;41.678;44.824;2024-03-23T03:00:40;0.43;;;0.32;;
85259;SDS011;75671;41.678;44.824;2024-03-23T03:03:08;0.47;;;0.10;;
85259;SDS011;75671;41.678;44.824;2024-03-23T03:05:35;2.92;;;0.20;;
85259;SDS011;75671;41.678;44.824;2024-03-23T03:08:02;1.00;;;0.25;;
85259;SDS011;75671;41.678;44.824;2024-03-23T03:10:30;0.60;;;0.20;;
85259;SDS011;75671;41.678;44.824;2024-03-23T03:15:26;1.30;;;0.10;;
85259;SDS011;75671;41.678;44.824;2024-03-23T03:17:54;0.50;;;0.20;;
85259;SDS011;75671;41.678;44.824;2024-03-23T03:20:21;0.90;;;0.30;;
85259;SDS011;75671;41.678;44.824;2024-03-23T03:22:50;0.75;;;0.30;;
85259;SDS011;75671;41.678;44.824;2024-03-23T03:25:19;1.67;;;0.20;;
85259;SDS011;75671;41.678;44.824;2024-03-23T03:27:46;3.30;;;0.20;;
85259;SDS011;75671;41.678;44.824;2024-03-23T03:30:13;0.73;;;0.20;;
85259;SDS011;75671;41.678;44.824;2024-03-23T03:32:41;1.35;;;0.60;;
85259;SDS011;75671;41.678;44.824;2024-03-23T03:35:08;1.08;;;0.20;;
85259;SDS011;75671;41.678;44.824;2024-03-23T03:37:35;0.85;;;0.22;;
85259;SDS011;75671;41.678;44.824;2024-03-23T03:40:02;0.60;;;0.30;;
85259;SDS011;75671;41.678;44.824;2024-03-23T03:42:30;1.25;;;0.20;;
85259;SDS011;75671;41.678;44.824;2024-03-23T03:44:57;1.20;;;0.30;;
85259;SDS011;75671;41.678;44.824;2024-03-23T03:47:24;1.10;;;0.30;;
85259;SDS011;75671;41.678;44.824;2024-03-23T03:49:51;1.65;;;0.28;;
85259;SDS011;75671;41.678;44.824;2024-03-23T03:52:19;0.40;;;0.20;;
85259;SDS011;75671;41.678;44.824;2024-03-23T03:54:45;2.63;;;0.43;;
85259;SDS011;75671;41.678;44.824;2024-03-23T03:57:13;2.45;;;0.40;;
85259;SDS011;75671;41.678;44.824;2024-03-23T03:59:40;1.40;;;0.60;;
85259;SDS011;75671;41.678;44.824;2024-03-23T04:02:08;1.65;;;0.75;;
85259;SDS011;75671;41.678;44.824;2024-03-23T04:04:35;1.95;;;1.05;;
85259;SDS011;75671;41.678;44.824;2024-03-23T04:07:02;4.30;;;0.98;;
85259;SDS011;75671;41.678;44.824;2024-03-23T04:11:58;6.72;;;0.93;;
85259;SDS011;75671;41.678;44.824;2024-03-23T04:14:25;2.38;;;0.82;;
85259;SDS011;75671;41.678;44.824;2024-03-23T04:16:53;2.63;;;0.82;;
85259;SDS011;75671;41.678;44.824;2024-03-23T04:19:20;1.63;;;0.73;;
85259;SDS011;75671;41.678;44.824;2024-03-23T04:21:47;2.47;;;0.75;;
85259;SDS011;75671;41.678;44.824;2024-03-23T04:24:14;2.30;;;0.75;;
85259;SDS011;75671;41.678;44.824;2024-03-23T04:26:45;2.00;;;0.52;;
85259;SDS011;75671;41.678;44.824;2024-03-23T04:29:12;9.57;;;0.60;;
85259;SDS011;75671;41.678;44.824;2024-03-23T04:31:39;2.75;;;0.77;;
85259;SDS011;75671;41.678;44.824;2024-03-23T04:34:06;3.47;;;1.00;;
85259;SDS011;75671;41.678;44.824;2024-03-23T04:36:35;4.07;;;0.80;;
85259;SDS011;75671;41.678;44.824;2024-03-23T04:39:02;3.22;;;0.70;;
85259;SDS011;75671;41.678;44.824;2024-03-23T04:41:32;2.97;;;0.95;;
85259;SDS011;75671;41.678;44.824;2024-03-23T04:43:59;1.77;;;0.95;;
85259;SDS011;75671;41.678;44.824;2024-03-23T04:46:26;2.55;;;1.00;;
85259;SDS011;75671;41.678;44.824;2024-03-23T04:48:54;4.47;;;0.85;;
85259;SDS011;75671;41.678;44.824;2024-03-23T04:51:23;5.30;;;1.00;;
85259;SDS011;75671;41.678;44.824;2024-03-23T04:53:51;5.38;;;1.40;;
85259;SDS011;75671;41.678;44.824;2024-03-23T04:56:18;6.07;;;1.50;;
85259;SDS011;75671;41.678;44.824;2024-03-23T04:58:45;3.38;;;1.40;;
85259;SDS011;75671;41.678;44.824;2024-03-23T05:01:13;7.55;;;0.90;;
85259;SDS011;75671;41.678;44.824;2024-03-23T05:03:40;5.65;;;1.35;;
85259;SDS011;75671;41.678;44.824;2024-03-23T05:06:07;7.82;;;1.23;;
85259;SDS011;75671;41.678;44.824;2024-03-23T05:08:35;9.52;;;3.90;;
85259;SDS011;75671;41.678;44.824;2024-03-23T05:11:02;4.75;;;2.40;;
85259;SDS011;75671;41.678;44.824;2024-03-23T05:13:29;3.13;;;1.15;;
85259;SDS011;75671;41.678;44.824;2024-03-23T05:15:56;7.35;;;2.17;;
85259;SDS011;75671;41.678;44.824;2024-03-23T05:18:24;8.77;;;1.92;;
85259;SDS011;75671;41.678;44.824;2024-03-23T05:20:56;3.38;;;1.02;;
85259;SDS011;75671;41.678;44.824;2024-03-23T05:23:24;4.03;;;0.80;;
85259;SDS011;75671;41.678;44.824;2024-03-23T05:25:52;3.78;;;1.00;;
85259;SDS011;75671;41.678;44.824;2024-03-23T05:28:20;2.85;;;1.10;;
85259;SDS011;75671;41.678;44.824;2024-03-23T05:30:51;1.88;;;0.50;;
85259;SDS011;75671;41.678;44.824;2024-03-23T05:33:21;4.47;;;0.60;;
85259;SDS011;75671;41.678;44.824;2024-03-23T05:35:58;3.47;;;0.77;;
85259;SDS011;75671;41.678;44.824;2024-03-23T05:38:27;6.88;;;0.80;;
85259;SDS011;75671;41.678;44.824;2024-03-23T05:40:57;3.30;;;0.77;;
85259;SDS011;75671;41.678;44.824;2024-03-23T05:43:25;1.33;;;0.50;;
85259;SDS011;75671;41.678;44.824;2024-03-23T05:45:56;4.28;;;1.13;;
85259;SDS011;75671;41.678;44.824;2024-03-23T05:48:25;3.22;;;1.02;;
85259;SDS011;75671;41.678;44.824;2024-03-23T05:50:53;1.35;;;0.82;;
85259;SDS011;75671;41.678;44.824;2024-03-23T05:53:20;8.18;;;0.90;;
85259;SDS011;75671;41.678;44.824;2024-03-23T05:55:48;3.45;;;0.70;;
85259;SDS011;75671;41.678;44.824;2024-03-23T05:58:15;2.67;;;0.70;;
85259;SDS011;75671;41.678;44.824;2024-03-23T06:00:44;7.07;;;1.08;;
85259;SDS011;75671;41.678;44.824;2024-03-23T06:03:11;5.60;;;1.13;;
85259;SDS011;75671;41.678;44.824;2024-03-23T06:05:39;8.48;;;1.38;;
85259;SDS011;75671;41.678;44.824;2024-03-23T06:08:09;5.53;;;1.02;;
85259;SDS011;75671;41.678;44.824;2024-03-23T06:10:36;1.80;;;0.70;;
85259;SDS011;75671;41.678;44.824;2024-03-23T06:13:03;2.70;;;1.00;;
85259;SDS011;75671;41.678;44.824;2024-03-23T06:15:31;2.00;;;0.75;;
85259;SDS011;75671;41.678;44.824;2024-03-23T06:17:58;3.50;;;0.70;;
85259;SDS011;75671;41.678;44.824;2024-03-23T06:20:25;3.85;;;0.80;;
85259;SDS011;75671;41.678;44.824;2024-03-23T06:22:52;8.38;;;1.70;;
85259;SDS011;75671;41.678;44.824;2024-03-23T06:25:20;1.48;;;0.73;;
85259;SDS011;75671;41.678;44.824;2024-03-23T06:27:47;5.28;;;1.08;;
85259;SDS011;75671;41.678;44.824;2024-03-23T06:30:15;1.95;;;0.90;;
85259;SDS011;75671;41.678;44.824;2024-03-23T06:32:42;3.30;;;0.93;;
85259;SDS011;75671;41.678;44.824;2024-03-23T06:35:09;2.42;;;1.60;;
85259;SDS011;75671;41.678;44.824;2024-03-23T06:37:36;5.93;;;1.02;;
85259;SDS011;75671;41.678;44.824;2024-03-23T06:40:08;2.75;;;0.90;;
85259;SDS011;75671;41.678;44.824;2024-03-23T06:42:36;3.90;;;1.33;;
85259;SDS011;75671;41.678;44.824;2024-03-23T06:45:04;1.60;;;0.93;;
85259;SDS011;75671;41.678;44.824;2024-03-23T06:47:32;2.20;;;1.40;;
85259;SDS011;75671;41.678;44.824;2024-03-23T06:50:00;8.48;;;0.80;;
85259;SDS011;75671;41.678;44.824;2024-03-23T06:52:31;4.88;;;1.65;;
85259;SDS011;75671;41.678;44.824;2024-03-23T06:54:58;9.07;;;1.20;;
85259;SDS011;75671;41.678;44.824;2024-03-23T06:57:26;6.25;;;1.20;;
85259;SDS011;75671;41.678;44.824;2024-03-23T06:59:54;7.30;;;2.22;;
85259;SDS011;75671;41.678;44.824;2024-03-23T07:02:22;2.13;;;0.93;;
85259;SDS011;75671;41.678;44.824;2024-03-23T07:04:52;9.35;;;1.23;;
85259;SDS011;75671;41.678;44.824;2024-03-23T07:07:18;3.38;;;1.15;;
85259;SDS011;75671;41.678;44.824;2024-03-23T07:09:46;4.72;;;1.10;;
85259;SDS011;75671;41.678;44.824;2024-03-23T07:12:13;11.25;;;1.88;;
85259;SDS011;75671;41.678;44.824;2024-03-23T07:14:40;4.28;;;1.75;;
85259;SDS011;75671;41.678;44.824;2024-03-23T07:17:07;8.05;;;1.58;;
85259;SDS011;75671;41.678;44.824;2024-03-23T07:19:35;9.75;;;1.92;;
85259;SDS011;75671;41.678;44.824;2024-03-23T07:22:02;5.85;;;1.33;;
85259;SDS011;75671;41.678;44.824;2024-03-23T07:24:30;9.93;;;1.42;;
85259;SDS011;75671;41.678;44.824;2024-03-23T07:26:57;7.43;;;1.52;;
85259;SDS011;75671;41.678;44.824;2024-03-23T07:29:25;9.23;;;1.35;;
85259;SDS011;75671;41.678;44.824;2024-03-23T07:31:52;6.90;;;1.08;;
85259;SDS011;75671;41.678;44.824;2024-03-23T07:34:19;7.13;;;1.00;;
85259;SDS011;75671;41.678;44.824;2024-03-23T07:36:46;3.60;;;1.05;;
85259;SDS011;75671;41.678;44.824;2024-03-23T07:39:14;5.03;;;1.13;;
85259;SDS011;75671;41.678;44.824;2024-03-23T07:41:44;5.45;;;1.52;;
85259;SDS011;75671;41.678;44.824;2024-03-23T07:44:12;9.30;;;1.90;;
85259;SDS011;75671;41.678;44.824;2024-03-23T07:46:39;4.38;;;1.67;;
85259;SDS011;75671;41.678;44.824;2024-03-23T07:49:06;5.50;;;1.50;;
85259;SDS011;75671;41.678;44.824;2024-03-23T07:51:33;2.22;;;1.30;;
85259;SDS011;75671;41.678;44.824;2024-03-23T07:54:01;4.57;;;1.80;;
85259;SDS011;75671;41.678;44.824;2024-03-23T07:56:28;13.77;;;1.98;;
85259;SDS011;75671;41.678;44.824;2024-03-23T07:58:56;13.82;;;2.05;;
85259;SDS011;75671;41.678;44.824;2024-03-23T08:01:23;7.40;;;1.88;;
85259;SDS011;75671;41.678;44.824;2024-03-23T08:03:51;8.80;;;1.75;;
85259;SDS011;75671;41.678;44.824;2024-03-23T08:06:19;4.88;;;1.70;;
85259;SDS011;75671;41.678;44.824;2024-03-23T08:08:50;5.32;;;1.60;;
85259;SDS011;75671;41.678;44.824;2024-03-23T08:11:26;4.35;;;1.40;;
85259;SDS011;75671;41.678;44.824;2024-03-23T08:13:55;5.00;;;1.38;;
85259;SDS011;75671;41.678;44.824;2024-03-23T08:16:23;2.70;;;1.50;;
85259;SDS011;75671;41.678;44.824;2024-03-23T08:18:51;7.00;;;1.42;;
85259;SDS011;75671;41.678;44.824;2024-03-23T08:21:18;4.40;;;1.23;;
85259;SDS011;75671;41.678;44.824;2024-03-23T08:23:46;4.38;;;1.45;;
85259;SDS011;75671;41.678;44.824;2024-03-23T08:26:14;4.20;;;1.15;;
85259;SDS011;75671;41.678;44.824;2024-03-23T08:28:42;6.22;;;1.83;;
85259;SDS011;75671;41.678;44.824;2024-03-23T08:31:10;5.85;;;1.73;;
85259;SDS011;75671;41.678;44.824;2024-03-23T08:33:39;12.68;;;2.78;;
85259;SDS011;75671;41.678;44.824;2024-03-23T08:36:06;8.43;;;1.67;;
85259;SDS011;75671;41.678;44.824;2024-03-23T08:38:35;2.33;;;1.10;;
85259;SDS011;75671;41.678;44.824;2024-03-23T08:41:06;3.58;;;0.98;;
85259;SDS011;75671;41.678;44.824;2024-03-23T08:43:38;4.22;;;0.80;;
85259;SDS011;75671;41.678;44.824;2024-03-23T08:46:07;2.97;;;1.05;;
85259;SDS011;75671;41.678;44.824;2024-03-23T08:48:40;5.18;;;1.20;;
85259;SDS011;75671;41.678;44.824;2024-03-23T08:51:12;4.72;;;1.38;;
85259;SDS011;75671;41.678;44.824;2024-03-23T08:53:41;6.80;;;1.45;;
85259;SDS011;75671;41.678;44.824;2024-03-23T08:56:09;6.93;;;1.20;;
85259;SDS011;75671;41.678;44.824;2024-03-23T08:58:37;7.90;;;1.65;;
85259;SDS011;75671;41.678;44.824;2024-03-23T09:01:08;8.27;;;1.88;;
85259;SDS011;75671;41.678;44.824;2024-03-23T09:06:10;7.80;;;1.40;;
85259;SDS011;75671;41.678;44.824;2024-03-23T09:08:39;4.43;;;1.20;;
85259;SDS011;75671;41.678;44.824;2024-03-23T09:11:08;5.70;;;1.05;;
85259;SDS011;75671;41.678;44.824;2024-03-23T09:13:37;2.20;;;1.45;;
85259;SDS011;75671;41.678;44.824;2024-03-23T09:16:05;11.85;;;1.50;;
85259;SDS011;75671;41.678;44.824;2024-03-23T09:18:33;21.42;;;5.47;;
85259;SDS011;75671;41.678;44.824;2024-03-23T09:21:02;24.50;;;4.47;;
85259;SDS011;75671;41.678;44.824;2024-03-23T09:23:30;7.35;;;1.80;;
85259;SDS011;75671;41.678;44.824;2024-03-23T09:25:57;17.05;;;1.77;;
85259;SDS011;75671;41.678;44.824;2024-03-23T09:28:24;3.50;;;1.20;;
85259;SDS011;75671;41.678;44.824;2024-03-23T09:30:51;4.43;;;1.60;;
85259;SDS011;75671;41.678;44.824;2024-03-23T09:33:19;4.53;;;1.27;;
85259;SDS011;75671;41.678;44.824;2024-03-23T09:35:46;9.93;;;2.38;;
85259;SDS011;75671;41.678;44.824;2024-03-23T09:38:14;5.82;;;2.10;;
85259;SDS011;75671;41.678;44.824;2024-03-23T09:40:41;6.47;;;1.70;;
85259;SDS011;75671;41.678;44.824;2024-03-23T09:43:09;7.13;;;1.80;;
85259;SDS011;75671;41.678;44.824;2024-03-23T09:45:38;16.08;;;2.53;;
85259;SDS011;75671;41.678;44.824;2024-03-23T09:48:08;3.97;;;1.83;;
85259;SDS011;75671;41.678;44.824;2024-03-23T09:50:42;6.90;;;2.22;;
85259;SDS011;75671;41.678;44.824;2024-03-23T09:53:11;15.75;;;4.13;;
85259;SDS011;75671;41.678;44.824;2024-03-23T09:55:41;5.80;;;1.83;;
85259;SDS011;75671;41.678;44.824;2024-03-23T09:58:13;6.53;;;1.95;;
85259;SDS011;75671;41.678;44.824;2024-03-23T10:00:43;9.18;;;2.55;;
85259;SDS011;75671;41.678;44.824;2024-03-23T10:03:12;5.78;;;1.58;;
85259;SDS011;75671;41.678;44.824;2024-03-23T10:05:39;5.20;;;2.03;;
85259;SDS011;75671;41.678;44.824;2024-03-23T10:10:40;12.70;;;1.77;;
85259;SDS011;75671;41.678;44.824;2024-03-23T10:13:08;17.33;;;5.68;;
85259;SDS011;75671;41.678;44.824;2024-03-23T10:15:35;5.22;;;1.80;;
85259;SDS011;75671;41.678;44.824;2024-03-23T10:18:19;8.38;;;1.73;;
85259;SDS011;75671;41.678;44.824;2024-03-23T10:20:50;5.85;;;1.70;;
85259;SDS011;75671;41.678;44.824;2024-03-23T10:23:19;9.23;;;2.53;;
85259;SDS011;75671;41.678;44.824;2024-03-23T10:25:46;12.30;;;2.70;;
85259;SDS011;75671;41.678;44.824;2024-03-23T10:28:14;6.43;;;3.10;;
85259;SDS011;75671;41.678;44.824;2024-03-23T10:30:40;7.57;;;2.30;;
85259;SDS011;75671;41.678;44.824;2024-03-23T10:35:40;7.28;;;1.83;;
85259;SDS011;75671;41.678;44.824;2024-03-23T10:38:08;9.65;;;3.25;;
85259;SDS011;75671;41.678;44.824;2024-03-23T10:40:35;7.38;;;2.70;;
85259;SDS011;75671;41.678;44.824;2024-03-23T10:43:03;14.10;;;2.15;;
85259;SDS011;75671;41.678;44.824;2024-03-23T10:45:31;9.63;;;2.05;;
85259;SDS011;75671;41.678;44.824;2024-03-23T10:47:59;5.10;;;1.73;;
85259;SDS011;75671;41.678;44.824;2024-03-23T10:50:26;5.30;;;1.85;;
85259;SDS011;75671;41.678;44.824;2024-03-23T10:52:53;7.07;;;1.60;;
85259;SDS011;75671;41.678;44.824;2024-03-23T10:55:22;4.95;;;1.92;;
85259;SDS011;75671;41.678;44.824;2024-03-23T10:57:51;13.93;;;2.60;;
85259;SDS011;75671;41.678;44.824;2024-03-23T11:02:49;7.78;;;1.92;;
85259;SDS011;75671;41.678;44.824;2024-03-23T11:07:53;5.53;;;2.25;;
85259;SDS011;75671;41.678;44.824;2024-03-23T11:10:28;8.35;;;1.60;;
85259;SDS011;75671;41.678;44.824;2024-03-23T11:15:24;9.30;;;2.00;;
85259;SDS011;75671;41.678;44.824;2024-03-23T11:18:06;5.38;;;1.33;;
85259;SDS011;75671;41.678;44.824;2024-03-23T11:20:39;3.88;;;1.48;;
85259;SDS011;75671;41.678;44.824;2024-03-23T11:23:05;6.97;;;1.83;;
85259;SDS011;75671;41.678;44.824;2024-03-23T11:28:10;4.30;;;1.77;;
85259;SDS011;75671;41.678;44.824;2024-03-23T11:30:39;9.77;;;1.88;;
85259;SDS011;75671;41.678;44.824;2024-03-23T11:33:05;7.28;;;1.55;;
85259;SDS011;75671;41.678;44.824;2024-03-23T11:35:34;9.48;;;2.33;;
85259;SDS011;75671;41.678;44.824;2024-03-23T11:38:07;16.73;;;2.40;;
85259;SDS011;75671;41.678;44.824;2024-03-23T11:40:37;10.48;;;2.30;;
85259;SDS011;75671;41.678;44.824;2024-03-23T11:43:06;9.10;;;2.40;;
85259;SDS011;75671;41.678;44.824;2024-03-23T11:45:36;8.43;;;3.38;;
85259;SDS011;75671;41.678;44.824;2024-03-23T11:48:14;20.85;;;2.85;;
85259;SDS011;75671;41.678;44.824;2024-03-23T11:50:46;11.25;;;1.40;;
85259;SDS011;75671;41.678;44.824;2024-03-23T11:53:20;13.88;;;3.35;;
85259;SDS011;75671;41.678;44.824;2024-03-23T11:55:48;6.40;;;2.20;;
85259;SDS011;75671;41.678;44.824;2024-03-23T11:58:26;12.32;;;4.53;;
85259;SDS011;75671;41.678;44.824;2024-03-23T12:00:57;13.52;;;3.03;;
85259;SDS011;75671;41.678;44.824;2024-03-23T12:03:26;9.73;;;2.22;;
85259;SDS011;75671;41.678;44.824;2024-03-23T12:05:58;13.68;;;1.80;;
85259;SDS011;75671;41.678;44.824;2024-03-23T12:11:06;19.45;;;4.72;;
85259;SDS011;75671;41.678;44.824;2024-03-23T12:13:44;5.70;;;1.90;;
85259;SDS011;75671;41.678;44.824;2024-03-23T12:18:41;10.90;;;2.90;;
85259;SDS011;75671;41.678;44.824;2024-03-23T12:21:09;10.02;;;2.28;;
85259;SDS011;75671;41.678;44.824;2024-03-23T12:23:40;11.80;;;2.33;;
85259;SDS011;75671;41.678;44.824;2024-03-23T12:26:09;7.13;;;2.05;;
85259;SDS011;75671;41.678;44.824;2024-03-23T12:28:36;8.93;;;2.30;;
85259;SDS011;75671;41.678;44.824;2024-03-23T12:31:04;15.18;;;2.13;;
85259;SDS011;75671;41.678;44.824;2024-03-23T12:33:32;8.50;;;1.85;;
85259;SDS011;75671;41.678;44.824;2024-03-23T12:35:59;5.15;;;1.70;;
85259;SDS011;75671;41.678;44.824;2024-03-23T12:38:26;5.63;;;1.45;;
85259;SDS011;75671;41.678;44.824;2024-03-23T12:40:53;4.95;;;1.65;;
85259;SDS011;75671;41.678;44.824;2024-03-23T12:43:20;3.22;;;2.28;;
85259;SDS011;75671;41.678;44.824;2024-03-23T12:45:48;5.10;;;2.08;;
85259;SDS011;75671;41.678;44.824;2024-03-23T12:48:16;3.70;;;2.80;;
85259;SDS011;75671;41.678;44.824;2024-03-23T12:50:44;4.53;;;2.25;;
85259;SDS011;75671;41.678;44.824;2024-03-23T12:53:11;6.78;;;2.47;;
85259;SDS011;75671;41.678;44.824;2024-03-23T12:55:38;6.97;;;2.80;;
85259;SDS011;75671;41.678;44.824;2024-03-23T12:58:05;4.28;;;2.55;;
85259;SDS011;75671;41.678;44.824;2024-03-23T13:00:33;7.65;;;2.95;;
85259;SDS011;75671;41.678;44.824;2024-03-23T13:03:00;5.88;;;2.85;;
85259;SDS011;75671;41.678;44.824;2024-03-23T13:05:27;7.32;;;2.33;;
85259;SDS011;75671;41.678;44.824;2024-03-23T13:07:54;4.90;;;2.20;;
85259;SDS011;75671;41.678;44.824;2024-03-23T13:10:23;5.13;;;2.60;;
85259;SDS011;75671;41.678;44.824;2024-03-23T13:12:50;11.88;;;2.60;;
85259;SDS011;75671;41.678;44.824;2024-03-23T13:15:17;6.55;;;2.10;;
85259;SDS011;75671;41.678;44.824;2024-03-23T13:17:46;5.18;;;2.00;;
85259;SDS011;75671;41.678;44.824;2024-03-23T13:20:13;15.57;;;5.03;;
85259;SDS011;75671;41.678;44.824;2024-03-23T13:22:41;7.35;;;2.75;;
85259;SDS011;75671;41.678;44.824;2024-03-23T13:25:08;5.00;;;2.20;;
85259;SDS011;75671;41.678;44.824;2024-03-23T13:27:35;13.38;;;3.08;;
85259;SDS011;75671;41.678;44.824;2024-03-23T13:30:03;7.93;;;3.45;;
85259;SDS011;75671;41.678;44.824;2024-03-23T13:32:31;8.52;;;2.55;;
85259;SDS011;75671;41.678;44.824;2024-03-23T13:34:59;17.65;;;3.75;;
85259;SDS011;75671;41.678;44.824;2024-03-23T13:37:26;11.10;;;1.95;;
85259;SDS011;75671;41.678;44.824;2024-03-23T13:39:53;13.70;;;2.72;;
85259;SDS011;75671;41.678;44.824;2024-03-23T13:42:20;8.05;;;2.30;;
85259;SDS011;75671;41.678;44.824;2024-03-23T13:44:48;4.65;;;1.83;;
85259;SDS011;75671;41.678;44.824;2024-03-23T13:47:16;4.15;;;1.77;;
85259;SDS011;75671;41.678;44.824;2024-03-23T13:49:44;5.63;;;2.05;;
85259;SDS011;75671;41.678;44.824;2024-03-23T13:52:11;6.88;;;2.00;;
85259;SDS011;75671;41.678;44.824;2024-03-23T13:54:38;3.95;;;1.67;;
85259;SDS011;75671;41.678;44.824;2024-03-23T13:57:05;6.43;;;1.75;;
85259;SDS011;75671;41.678;44.824;2024-03-23T13:59:32;4.07;;;1.27;;
85259;SDS011;75671;41.678;44.824;2024-03-23T14:01:59;1.83;;;1.00;;
85259;SDS011;75671;41.678;44.824;2024-03-23T14:04:27;3.45;;;1.25;;
85259;SDS011;75671;41.678;44.824;2024-03-23T14:06:54;4.10;;;2.00;;
85259;SDS011;75671;41.678;44.824;2024-03-23T14:09:23;5.53;;;2.38;;
85259;SDS011;75671;41.678;44.824;2024-03-23T14:11:52;4.28;;;1.60;;
85259;SDS011;75671;41.678;44.824;2024-03-23T14:14:19;3.75;;;1.85;;
85259;SDS011;75671;41.678;44.824;2024-03-23T14:16:48;6.97;;;2.47;;
85259;SDS011;75671;41.678;44.824;2024-03-23T14:19:16;3.40;;;1.60;;
85259;SDS011;75671;41.678;44.824;2024-03-23T14:21:43;4.18;;;2.00;;
85259;SDS011;75671;41.678;44.824;2024-03-23T14:24:10;3.13;;;1.63;;
85259;SDS011;75671;41.678;44.824;2024-03-23T14:26:37;3.78;;;1.70;;
85259;SDS011;75671;41.678;44.824;2024-03-23T14:29:05;7.13;;;1.83;;
85259;SDS011;75671;41.678;44.824;2024-03-23T14:31:32;5.50;;;2.40;;
85259;SDS011;75671;41.678;44.824;2024-03-23T14:34:00;5.28;;;1.98;;
85259;SDS011;75671;41.678;44.824;2024-03-23T14:36:27;5.32;;;2.70;;
85259;SDS011;75671;41.678;44.824;2024-03-23T14:38:55;10.38;;;5.93;;
85259;SDS011;75671;41.678;44.824;2024-03-23T14:41:23;3.17;;;2.10;;
